Terminal Aerodrome Forecast
Issued by NWS

Home | Current Version | Previous Version | Text Only | Print | Product List | Glossary On
Versions: 1 2 3 4 5 6 7 8 9 10 11 12 13 14 15
000
FTUS46 KMTR 282342 CCA
TAFSNS
TAF COR
KSNS 282342Z 2900/2924 29012KT P6SM SKC
     FM290400 29008KT P6SM FEW008
     FM290700 VRB03KT P6SM SCT004
      TEMPO 2910/2914 BKN004
     FM291400 14004KT P6SM BKN004
     FM291700 29011KT P6SM FEW300=

USA.gov is the U.S. government's official web portal to all federal, state and local government web resources and services.